Aviation Digital Data Service (ADDS)

Output produced by METARs form (1135 UTC 22 September 2017)
found at http://aviationweather.gov/adds/metars/
 
KALB 221134Z 2212/2312 36005KT P6SM BKN250 
     FM221500 36008KT P6SM FEW050 SCT250 
     FM230200 01005KT P6SM SCT250 
     FM230600 VRB03KT P6SM SCT250